Time;durP1;ratioP1;P1;durP2;ratioP2;P2;SDS_P1;SDS_P2;PMS_P1;PMS_P2;Temp;Humidity;BMP_temperature;BMP_pressure;BME280_temperature;BME280_humidity;BME280_pressure;Samples;Min_cycle;Max_cycle;Signal;HPM_P1;HPM_P2
2022/10/28 00:00:04;;;;;;;10.02;6.72;;;15.30;99.90;;;;;;5053625;28;20047;-75
2022/10/28 00:02:29;;;;;;;8.63;5.82;;;15.30;99.90;;;;;;5035353;28;20036;-75
2022/10/28 00:04:56;;;;;;;9.38;5.40;;;15.30;99.90;;;;;;5039511;28;20025;-76
2022/10/28 00:07:22;;;;;;;8.40;5.45;;;15.30;99.90;;;;;;5044932;28;20025;-75
2022/10/28 00:09:47;;;;;;;9.68;6.13;;;15.30;99.90;;;;;;5030698;28;20022;-76
2022/10/28 00:12:13;;;;;;;15.88;9.52;;;15.30;99.90;;;;;;5032906;28;20048;-75
2022/10/28 00:14:38;;;;;;;14.18;10.60;;;15.30;99.90;;;;;;5032619;28;20041;-75
2022/10/28 00:17:04;;;;;;;10.40;6.57;;;15.30;99.90;;;;;;5032258;28;20025;-76
2022/10/28 00:19:30;;;;;;;12.75;8.05;;;15.30;99.90;;;;;;5031085;28;20489;-76
2022/10/28 00:21:55;;;;;;;10.43;7.65;;;15.30;99.90;;;;;;5028986;28;20443;-75
2022/10/28 00:24:21;;;;;;;11.27;7.10;;;15.40;99.90;;;;;;5044860;28;20136;-76
2022/10/28 00:26:46;;;;;;;10.27;7.45;;;15.40;99.90;;;;;;5033918;28;20022;-75
2022/10/28 00:29:14;;;;;;;8.13;6.35;;;15.40;99.90;;;;;;5046404;28;20095;-76
2022/10/28 00:31:41;;;;;;;9.32;7.13;;;15.40;99.90;;;;;;5040248;28;20017;-76
2022/10/28 00:34:10;;;;;;;8.70;6.57;;;15.40;99.90;;;;;;5036003;28;20040;-76
2022/10/28 00:36:39;;;;;;;9.15;6.70;;;15.40;99.90;;;;;;5034010;28;20063;-76
2022/10/28 00:39:11;;;;;;;11.95;6.80;;;15.40;99.90;;;;;;5051272;28;20029;-75
2022/10/28 00:41:39;;;;;;;8.30;6.18;;;15.40;99.90;;;;;;5033493;28;20036;-74
2022/10/28 00:44:48;;;;;;;11.10;6.90;;;15.40;99.90;;;;;;5051585;28;20083;-75
2022/10/28 00:47:22;;;;;;;8.68;6.50;;;15.40;99.90;;;;;;5021054;28;20029;-74
2022/10/28 00:49:49;;;;;;;9.50;6.70;;;15.40;99.90;;;;;;5029264;28;20018;-74
2022/10/28 00:52:20;;;;;;;11.07;6.55;;;15.40;99.90;;;;;;5043181;28;20041;-75
2022/10/28 00:54:46;;;;;;;11.07;7.28;;;15.40;99.90;;;;;;5030819;28;20106;-75
2022/10/28 00:57:16;;;;;;;9.48;6.60;;;15.40;99.90;;;;;;5032487;28;20029;-75
2022/10/28 00:59:48;;;;;;;11.02;6.40;;;15.40;99.90;;;;;;5032988;28;20535;-76
2022/10/28 01:02:14;;;;;;;8.20;6.25;;;15.50;99.90;;;;;;5031106;28;20034;-74
2022/10/28 01:04:41;;;;;;;13.25;7.25;;;15.50;99.90;;;;;;5028996;28;20511;-74
2022/10/28 01:07:08;;;;;;;7.43;5.85;;;15.50;99.90;;;;;;5038381;28;20032;-76
2022/10/28 01:09:34;;;;;;;8.70;6.78;;;15.50;99.90;;;;;;5032899;28;20025;-75
2022/10/28 01:12:21;;;;;;;8.98;6.20;;;15.50;99.90;;;;;;5042664;28;20388;-76
2022/10/28 01:14:59;;;;;;;15.27;7.00;;;15.50;99.90;;;;;;5030525;28;20025;-75
2022/10/28 01:17:50;;;;;;;10.80;6.88;;;15.50;99.90;;;;;;5031294;28;20112;-75
2022/10/28 01:20:36;;;;;;;7.57;6.40;;;15.50;99.90;;;;;;5024942;28;20354;-75
2022/10/28 01:23:20;;;;;;;9.75;6.32;;;15.50;99.90;;;;;;5030159;28;20090;-76
2022/10/28 01:25:52;;;;;;;9.02;5.97;;;15.50;99.90;;;;;;5030616;28;20036;-76
2022/10/28 01:28:27;;;;;;;7.85;5.75;;;15.50;99.90;;;;;;5024241;28;20366;-75
2022/10/28 01:31:02;;;;;;;;;;;15.50;99.90;;;;;;5033720;28;20033;-75
2022/10/28 01:33:38;;;;;;;8.63;5.65;;;15.50;99.90;;;;;;5040932;28;19963;-75
2022/10/28 01:36:23;;;;;;;11.27;6.30;;;15.50;99.90;;;;;;5030433;28;20083;-76
2022/10/28 01:39:12;;;;;;;7.10;5.97;;;15.50;99.90;;;;;;5034878;28;20052;-76
2022/10/28 01:41:57;;;;;;;9.95;5.82;;;15.50;99.90;;;;;;5041354;28;20369;-75
2022/10/28 01:44:52;;;;;;;7.75;6.13;;;15.50;99.90;;;;;;5039173;28;20047;-75
2022/10/28 01:47:27;;;;;;;8.75;5.88;;;15.50;99.90;;;;;;5037797;28;20388;-75
2022/10/28 01:50:04;;;;;;;9.13;5.82;;;15.50;99.90;;;;;;5029154;28;20037;-75
2022/10/28 01:52:31;;;;;;;7.57;5.85;;;15.50;99.90;;;;;;5036477;28;20378;-74
2022/10/28 01:55:24;;;;;;;8.63;5.93;;;15.50;99.90;;;;;;5037125;28;20033;-74
2022/10/28 01:57:52;;;;;;;10.02;6.53;;;15.50;99.90;;;;;;5037688;28;20385;-74
2022/10/28 02:00:17;;;;;;;9.10;5.95;;;15.50;99.90;;;;;;5025478;28;20605;-74
2022/10/28 02:02:46;;;;;;;8.52;6.45;;;15.50;99.90;;;;;;5038985;28;20116;-75
2022/10/28 02:05:44;;;;;;;9.15;6.20;;;15.50;99.90;;;;;;5039394;28;20573;-74
2022/10/28 02:08:19;;;;;;;8.13;6.20;;;15.50;99.90;;;;;;5038628;28;20472;-75
2022/10/28 02:10:59;;;;;;;10.70;6.18;;;15.50;99.90;;;;;;5030382;28;20041;-75
2022/10/28 02:13:53;;;;;;;9.60;5.85;;;15.50;99.90;;;;;;5028633;28;20535;-75
2022/10/28 02:16:34;;;;;;;9.88;6.40;;;15.50;99.90;;;;;;5030716;28;20049;-75
2022/10/28 02:19:26;;;;;;;8.52;5.90;;;15.40;99.90;;;;;;5026581;28;20370;-75
2022/10/28 02:22:03;;;;;;;9.23;5.93;;;15.40;99.90;;;;;;5039747;28;20484;-74
2022/10/28 02:24:54;;;;;;;8.02;5.97;;;15.40;99.90;;;;;;5049904;28;20119;-74
2022/10/28 02:27:45;;;;;;;8.35;6.05;;;15.40;99.90;;;;;;5033014;28;20440;-74
2022/10/28 02:30:31;;;;;;;9.00;5.80;;;15.40;99.90;;;;;;5039077;28;20125;-74
2022/10/28 02:33:00;;;;;;;9.23;5.88;;;15.30;99.90;;;;;;5051236;28;20026;-74
2022/10/28 02:35:34;;;;;;;8.45;6.28;;;15.30;99.90;;;;;;5041393;28;20037;-74
2022/10/28 02:38:04;;;;;;;11.18;5.70;;;15.30;99.90;;;;;;5033975;28;20029;-74
2022/10/28 02:40:33;;;;;;;7.65;6.40;;;15.30;99.90;;;;;;5037375;28;20037;-75
2022/10/28 02:43:06;;;;;;;9.32;6.55;;;15.30;99.90;;;;;;5017738;28;20076;-74
2022/10/28 02:45:42;;;;;;;8.52;5.72;;;15.30;99.90;;;;;;5043861;28;20040;-74
2022/10/28 02:48:15;;;;;;;10.10;6.43;;;15.30;99.90;;;;;;5049538;28;20051;-74
2022/10/28 02:50:46;;;;;;;10.48;5.78;;;15.30;99.90;;;;;;5036109;28;20128;-74
2022/10/28 02:53:20;;;;;;;7.90;6.07;;;15.20;99.90;;;;;;5035370;28;20026;-70
2022/10/28 02:55:51;;;;;;;7.25;5.43;;;15.20;99.90;;;;;;5034308;28;20121;-71
2022/10/28 02:58:17;;;;;;;9.35;6.05;;;15.20;99.90;;;;;;5034154;28;20033;-74
2022/10/28 03:00:45;;;;;;;11.13;6.80;;;15.20;99.90;;;;;;5048360;28;20029;-74
2022/10/28 03:03:12;;;;;;;12.77;6.20;;;15.20;99.90;;;;;;5044493;28;20033;-74
2022/10/28 03:05:37;;;;;;;9.40;5.82;;;15.20;99.90;;;;;;5035013;28;20504;-74
2022/10/28 03:08:04;;;;;;;7.18;5.88;;;15.10;99.90;;;;;;5035258;28;20029;-74
2022/10/28 03:10:30;;;;;;;10.18;5.95;;;15.10;99.90;;;;;;5029685;28;20029;-74
2022/10/28 03:12:55;;;;;;;9.15;5.55;;;15.10;99.90;;;;;;5053917;28;20025;-74
2022/10/28 03:15:28;;;;;;;9.00;5.82;;;15.10;99.90;;;;;;5044060;28;20101;-74
2022/10/28 03:17:53;;;;;;;8.00;5.97;;;15.10;99.90;;;;;;5023673;28;20026;-73
2022/10/28 03:20:21;;;;;;;6.57;5.50;;;15.10;99.90;;;;;;5034677;28;20026;-73
2022/10/28 03:22:47;;;;;;;9.82;6.05;;;15.10;99.90;;;;;;5024999;28;20025;-73
2022/10/28 03:25:12;;;;;;;7.75;5.93;;;15.10;99.90;;;;;;5033415;28;20021;-73
2022/10/28 03:27:40;;;;;;;10.73;7.30;;;15.00;99.90;;;;;;5035745;28;20025;-73
2022/10/28 03:30:06;;;;;;;9.45;5.68;;;15.00;99.90;;;;;;5034637;28;20068;-73
2022/10/28 03:32:32;;;;;;;11.27;6.45;;;15.00;99.90;;;;;;5037409;28;20400;-74
2022/10/28 03:34:57;;;;;;;9.48;6.28;;;15.00;99.90;;;;;;5043412;28;20013;-74
2022/10/28 03:37:23;;;;;;;6.97;5.93;;;15.00;99.90;;;;;;5042251;28;20099;-74
2022/10/28 03:39:48;;;;;;;9.55;5.50;;;15.00;99.90;;;;;;5033847;28;20412;-74
2022/10/28 03:42:14;;;;;;;7.93;6.53;;;14.90;99.90;;;;;;5030117;28;20041;-74
2022/10/28 03:44:39;;;;;;;9.63;6.57;;;14.90;99.90;;;;;;5030628;28;20120;-74
2022/10/28 03:47:05;;;;;;;8.20;6.13;;;14.90;99.90;;;;;;5047329;28;20447;-74
2022/10/28 03:49:30;;;;;;;9.38;6.28;;;14.80;99.90;;;;;;5039186;28;20055;-74
2022/10/28 03:51:56;;;;;;;10.07;7.03;;;14.90;99.90;;;;;;5033901;28;20031;-74
2022/10/28 03:54:22;;;;;;;11.38;5.97;;;14.80;99.90;;;;;;5026508;28;20087;-74
2022/10/28 03:56:47;;;;;;;8.80;7.10;;;14.80;99.90;;;;;;5034056;28;20552;-73
2022/10/28 03:59:13;;;;;;;10.45;6.05;;;14.90;99.90;;;;;;5031437;28;20056;-74
2022/10/28 04:01:39;;;;;;;10.88;6.35;;;14.80;99.90;;;;;;5032469;28;20030;-74
2022/10/28 04:04:04;;;;;;;8.85;6.22;;;14.90;99.90;;;;;;5044682;28;20033;-74
2022/10/28 04:06:30;;;;;;;8.30;6.18;;;14.80;99.90;;;;;;5037006;28;20365;-75
2022/10/28 04:08:56;;;;;;;7.88;5.72;;;14.80;99.90;;;;;;5040171;28;20029;-74
2022/10/28 04:11:21;;;;;;;10.15;6.30;;;14.80;99.90;;;;;;5038624;28;20369;-74
2022/10/28 04:13:47;;;;;;;7.90;6.25;;;14.80;99.90;;;;;;5041514;28;20369;-73
2022/10/28 04:16:13;;;;;;;10.02;6.68;;;14.80;99.90;;;;;;5031546;28;20032;-73
2022/10/28 04:18:38;;;;;;;11.25;6.25;;;14.70;99.90;;;;;;5039204;28;20362;-73
2022/10/28 04:21:04;;;;;;;8.57;6.70;;;14.70;99.90;;;;;;5033671;28;20029;-73
2022/10/28 04:23:30;;;;;;;10.38;7.18;;;14.70;99.90;;;;;;5024657;28;20042;-73
2022/10/28 04:25:55;;;;;;;9.00;6.63;;;14.70;99.90;;;;;;5033332;28;20029;-73
2022/10/28 04:28:25;;;;;;;9.50;6.22;;;14.70;99.90;;;;;;5038073;28;20025;-73
2022/10/28 04:30:51;;;;;;;9.27;7.40;;;14.60;99.90;;;;;;5031754;28;20075;-73
2022/10/28 04:33:17;;;;;;;8.48;6.68;;;14.60;99.90;;;;;;5036439;28;20465;-73
2022/10/28 04:35:43;;;;;;;9.77;6.45;;;14.60;99.90;;;;;;5032947;28;20041;-73
2022/10/28 04:38:09;;;;;;;9.60;6.97;;;14.60;99.90;;;;;;5035509;28;20029;-73
2022/10/28 04:40:35;;;;;;;8.95;6.70;;;14.60;99.90;;;;;;5032411;28;20028;-73
2022/10/28 04:43:01;;;;;;;8.48;6.32;;;14.60;99.90;;;;;;5033813;28;20045;-73
2022/10/28 04:45:27;;;;;;;7.78;6.00;;;14.60;99.90;;;;;;5032103;28;20540;-73
2022/10/28 04:47:57;;;;;;;11.10;7.45;;;14.60;99.90;;;;;;5031217;28;20461;-73
2022/10/28 04:50:22;;;;;;;10.75;6.88;;;14.50;99.90;;;;;;5043044;28;20411;-73
2022/10/28 04:52:48;;;;;;;9.95;6.35;;;14.50;99.90;;;;;;5048183;28;20079;-73
2022/10/28 04:55:13;;;;;;;9.95;7.10;;;14.50;99.90;;;;;;5041497;28;20037;-76
2022/10/28 04:57:39;;;;;;;10.75;6.75;;;14.50;99.90;;;;;;5036241;28;20083;-76
2022/10/28 05:00:05;;;;;;;11.15;7.20;;;14.50;99.90;;;;;;5052405;28;20029;-75
2022/10/28 05:02:31;;;;;;;11.30;7.50;;;14.50;99.90;;;;;;5037610;28;20022;-75
2022/10/28 05:05:01;;;;;;;10.23;7.35;;;14.50;99.90;;;;;;5031440;28;20041;-75
2022/10/28 05:07:26;;;;;;;9.98;7.25;;;14.50;99.90;;;;;;5024957;28;20065;-74
2022/10/28 05:09:52;;;;;;;13.07;7.72;;;14.50;99.90;;;;;;5040043;28;20392;-75
2022/10/28 05:12:18;;;;;;;11.15;7.53;;;14.40;99.90;;;;;;5037001;28;20041;-75
2022/10/28 05:14:43;;;;;;;10.35;7.43;;;14.40;99.90;;;;;;5035351;28;20488;-73
2022/10/28 05:17:10;;;;;;;11.65;7.88;;;14.40;99.90;;;;;;5040493;28;20098;-74
2022/10/28 05:19:36;;;;;;;11.70;8.45;;;14.40;99.90;;;;;;5034740;28;20109;-74
2022/10/28 05:22:02;;;;;;;13.27;7.90;;;14.40;99.90;;;;;;5045221;28;20163;-73
2022/10/28 05:24:27;;;;;;;9.82;8.00;;;14.40;99.90;;;;;;5051792;28;20048;-73
2022/10/28 05:26:54;;;;;;;10.38;7.40;;;14.40;99.90;;;;;;5027535;28;20026;-74
2022/10/28 05:29:20;;;;;;;12.15;7.85;;;14.30;99.90;;;;;;5030345;28;20037;-74
2022/10/28 05:31:45;;;;;;;9.48;7.45;;;14.30;99.90;;;;;;5031734;28;20129;-74
2022/10/28 05:34:11;;;;;;;13.13;7.75;;;14.30;99.90;;;;;;5032584;28;20116;-74
2022/10/28 05:36:37;;;;;;;11.93;7.93;;;14.30;99.90;;;;;;5031966;28;20025;-75
2022/10/28 05:39:03;;;;;;;11.95;7.90;;;14.30;99.90;;;;;;5018703;28;20093;-75
2022/10/28 05:41:29;;;;;;;9.85;7.85;;;14.30;99.90;;;;;;5048780;28;20006;-74
2022/10/28 05:43:55;;;;;;;11.82;7.78;;;14.30;99.90;;;;;;5020896;28;20042;-75
2022/10/28 05:46:21;;;;;;;11.82;7.75;;;14.30;99.90;;;;;;5029155;28;20097;-75
2022/10/28 05:48:47;;;;;;;11.85;7.30;;;14.30;99.90;;;;;;5031124;28;20033;-75
2022/10/28 05:51:13;;;;;;;10.80;7.50;;;14.30;99.90;;;;;;5030096;28;20022;-75
2022/10/28 05:53:40;;;;;;;11.95;8.15;;;14.30;99.90;;;;;;5041446;28;20476;-75
2022/10/28 05:56:07;;;;;;;12.38;8.35;;;14.30;99.90;;;;;;5036187;28;20041;-76
2022/10/28 05:58:33;;;;;;;9.95;8.82;;;14.30;99.90;;;;;;5029816;28;20029;-76
2022/10/28 06:00:59;;;;;;;11.32;8.10;;;14.40;99.90;;;;;;5029668;28;20037;-74
2022/10/28 06:03:25;;;;;;;11.02;7.60;;;14.40;99.90;;;;;;5031091;28;20029;-75
2022/10/28 06:05:50;;;;;;;12.68;8.13;;;14.40;99.90;;;;;;5032401;28;20029;-75
2022/10/28 06:08:16;;;;;;;15.00;8.07;;;14.50;99.90;;;;;;5037102;28;20029;-76
2022/10/28 06:10:50;;;;;;;14.52;8.32;;;14.50;99.90;;;;;;5030191;28;20018;-76
2022/10/28 06:13:15;;;;;;;10.95;7.63;;;14.60;99.90;;;;;;5031173;28;20120;-76
2022/10/28 06:15:41;;;;;;;8.65;6.85;;;14.60;99.90;;;;;;5013730;28;20500;-75
2022/10/28 06:18:06;;;;;;;12.30;8.25;;;14.60;99.90;;;;;;5031882;28;20654;-75
2022/10/28 06:20:32;;;;;;;13.30;7.40;;;14.60;99.90;;;;;;5031257;28;20108;-75
2022/10/28 06:22:57;;;;;;;10.10;7.43;;;14.70;99.90;;;;;;5030433;28;20108;-74
2022/10/28 06:25:25;;;;;;;10.57;7.45;;;14.70;99.90;;;;;;5030825;28;20072;-74
2022/10/28 06:27:55;;;;;;;10.50;7.00;;;14.80;99.90;;;;;;5022002;28;20017;-75
2022/10/28 06:30:23;;;;;;;10.77;6.80;;;14.80;99.90;;;;;;5031036;28;20065;-75
2022/10/28 06:32:49;;;;;;;10.18;6.53;;;14.90;99.90;;;;;;5031448;28;20024;-74
2022/10/28 06:35:15;;;;;;;10.93;6.63;;;14.90;99.90;;;;;;5024962;28;20042;-74
2022/10/28 06:37:41;;;;;;;12.93;6.03;;;14.90;99.90;;;;;;5035938;28;20608;-75
2022/10/28 06:40:07;;;;;;;11.30;7.53;;;15.00;99.90;;;;;;5035664;28;20558;-76
2022/10/28 06:42:33;;;;;;;12.43;6.38;;;15.00;99.90;;;;;;5016731;28;20084;-75
2022/10/28 06:44:58;;;;;;;11.35;6.25;;;15.00;99.90;;;;;;5031438;28;20424;-76
2022/10/28 06:47:24;;;;;;;10.57;6.72;;;15.00;99.90;;;;;;5041292;28;20025;-76
2022/10/28 06:49:50;;;;;;;10.57;6.53;;;15.00;99.90;;;;;;5030493;28;20029;-75
2022/10/28 06:52:16;;;;;;;8.52;6.30;;;15.10;99.90;;;;;;5029239;28;20030;-73
2022/10/28 06:54:42;;;;;;;11.13;7.65;;;15.10;99.90;;;;;;5032191;28;20037;-74
2022/10/28 06:57:09;;;;;;;9.68;5.80;;;15.10;99.90;;;;;;5034510;28;20037;-72
2022/10/28 06:59:35;;;;;;;12.15;7.07;;;15.10;99.90;;;;;;5027964;28;20025;-73
2022/10/28 07:02:04;;;;;;;11.55;7.30;;;15.20;99.90;;;;;;5028824;28;20088;-74
2022/10/28 07:04:29;;;;;;;11.57;7.50;;;15.20;99.90;;;;;;5032730;28;20038;-74
2022/10/28 07:06:56;;;;;;;8.45;6.47;;;15.20;99.90;;;;;;5030038;28;20040;-76
2022/10/28 07:09:23;;;;;;;9.38;6.22;;;15.20;99.90;;;;;;5033614;28;20033;-75
2022/10/28 07:11:56;;;;;;;12.75;6.55;;;15.20;99.90;;;;;;5031382;28;20132;-75
2022/10/28 07:14:22;;;;;;;11.95;6.47;;;15.30;99.90;;;;;;5032074;28;20056;-77
2022/10/28 07:16:47;;;;;;;9.95;6.55;;;15.30;99.90;;;;;;5033130;28;20029;-71
2022/10/28 07:19:13;;;;;;;9.68;6.50;;;15.30;99.90;;;;;;5041154;28;20028;-74
2022/10/28 07:21:39;;;;;;;12.27;6.55;;;15.30;99.90;;;;;;5038944;28;20212;-74
2022/10/28 07:24:04;;;;;;;9.65;6.32;;;15.40;99.90;;;;;;5042141;28;20044;-74
2022/10/28 07:26:30;;;;;;;9.35;6.10;;;15.40;99.90;;;;;;5034048;28;20029;-74
2022/10/28 07:28:55;;;;;;;9.57;6.28;;;15.40;99.90;;;;;;5041723;28;20117;-77
2022/10/28 07:31:21;;;;;;;9.75;5.82;;;15.40;99.90;;;;;;5033362;28;20399;-75
2022/10/28 07:33:54;;;;;;;8.52;6.13;;;15.50;99.90;;;;;;5040513;28;20035;-76
2022/10/28 07:36:20;;;;;;;11.30;5.40;;;15.50;99.90;;;;;;5032921;28;20516;-76
2022/10/28 07:38:50;;;;;;;7.75;5.90;;;15.60;99.90;;;;;;5034091;28;20025;-76
2022/10/28 07:41:17;;;;;;;13.55;6.28;;;15.60;99.90;;;;;;5026610;28;20433;-74
2022/10/28 07:43:44;;;;;;;8.18;5.57;;;15.60;99.90;;;;;;5013982;28;20054;-73
2022/10/28 07:46:13;;;;;;;10.77;5.57;;;15.70;99.90;;;;;;5036016;28;20028;-74
2022/10/28 07:48:39;;;;;;;8.43;5.70;;;15.80;99.90;;;;;;5033261;28;20024;-75
2022/10/28 07:51:06;;;;;;;8.52;5.38;;;15.80;99.90;;;;;;5028336;28;20384;-74
2022/10/28 07:53:32;;;;;;;8.55;5.90;;;15.90;99.90;;;;;;5031691;28;20044;-75
2022/10/28 07:56:04;;;;;;;8.18;5.93;;;15.90;99.90;;;;;;5034955;28;20052;-75
2022/10/28 07:58:30;;;;;;;12.20;6.32;;;16.00;99.90;;;;;;5017842;28;20030;-74
2022/10/28 08:01:00;;;;;;;9.63;5.50;;;16.10;99.90;;;;;;5034125;28;20044;-75
2022/10/28 08:03:26;;;;;;;8.60;5.65;;;16.10;99.90;;;;;;5027207;28;20064;-75
2022/10/28 08:06:03;;;;;;;8.95;5.50;;;16.20;99.90;;;;;;5038896;28;20037;-75
2022/10/28 08:08:29;;;;;;;13.00;5.05;;;16.30;99.90;;;;;;5038728;28;20033;-75
2022/10/28 08:10:54;;;;;;;7.95;5.07;;;16.40;99.90;;;;;;5035379;28;20026;-74
2022/10/28 08:13:20;;;;;;;8.45;4.97;;;16.40;99.90;;;;;;5038305;28;20068;-68
2022/10/28 08:15:53;;;;;;;9.07;5.03;;;16.50;99.90;;;;;;5031559;28;20025;-70
2022/10/28 08:18:20;;;;;;;8.73;4.78;;;16.50;99.90;;;;;;5027054;28;20057;-75
2022/10/28 08:20:47;;;;;;;10.57;5.97;;;16.60;99.90;;;;;;5031770;28;20028;-75
2022/10/28 08:23:13;;;;;;;9.32;4.32;;;16.70;99.90;;;;;;5028856;28;20129;-75
2022/10/28 08:25:50;;;;;;;8.65;4.82;;;16.80;99.90;;;;;;5027381;28;20091;-75
2022/10/28 08:28:16;;;;;;;7.63;4.55;;;16.90;99.90;;;;;;5016240;28;20106;-75
2022/10/28 08:30:42;;;;;;;11.00;5.60;;;17.00;99.90;;;;;;5027016;28;20037;-73
2022/10/28 08:33:08;;;;;;;14.57;5.57;;;17.00;99.90;;;;;;5031435;28;20029;-75
2022/10/28 08:35:35;;;;;;;15.30;5.20;;;17.10;99.90;;;;;;5030810;28;20393;-74
2022/10/28 08:38:02;;;;;;;7.60;4.78;;;17.30;99.90;;;;;;5020082;28;20029;-74
2022/10/28 08:40:34;;;;;;;9.38;5.18;;;17.40;99.90;;;;;;5026085;28;20045;-73
2022/10/28 08:43:26;;;;;;;7.50;4.38;;;17.50;99.90;;;;;;5037138;28;20121;-73
2022/10/28 08:46:13;;;;;;;6.75;4.63;;;17.60;99.90;;;;;;5025788;28;20033;-73
2022/10/28 08:48:40;;;;;;;8.35;4.78;;;17.70;99.90;;;;;;5027135;28;20025;-73
2022/10/28 08:51:17;;;;;;;7.03;4.63;;;17.80;99.90;;;;;;5032496;28;20033;-73
2022/10/28 08:53:56;;;;;;;10.05;5.00;;;17.80;99.90;;;;;;5033466;28;20030;-73
2022/10/28 08:56:28;;;;;;;5.80;4.57;;;17.90;99.90;;;;;;5041909;28;20051;-73
2022/10/28 08:58:59;;;;;;;7.05;4.60;;;17.90;99.90;;;;;;5041807;28;20151;-73
2022/10/28 09:01:45;;;;;;;6.35;4.05;;;17.90;99.90;;;;;;5030603;28;20404;-73
2022/10/28 09:04:36;;;;;;;10.02;4.72;;;17.90;99.90;;;;;;5030752;28;20046;-74
2022/10/28 09:07:03;;;;;;;6.63;4.07;;;17.90;99.90;;;;;;5037730;28;20107;-74
2022/10/28 09:09:29;;;;;;;12.30;5.22;;;17.90;99.90;;;;;;5037037;28;20041;-73
2022/10/28 09:12:01;;;;;;;10.98;4.78;;;18.00;99.90;;;;;;5050121;28;20025;-73
2022/10/28 09:14:55;;;;;;;7.63;4.50;;;18.10;99.90;;;;;;5034127;28;20056;-74
2022/10/28 09:17:36;;;;;;;7.28;4.63;;;18.10;99.90;;;;;;5029633;28;20491;-75
2022/10/28 09:20:30;;;;;;;8.95;5.13;;;18.10;99.90;;;;;;5033863;28;20059;-74
2022/10/28 09:22:58;;;;;;;8.37;4.80;;;18.20;99.90;;;;;;5026572;28;20029;-73
2022/10/28 09:25:48;;;;;;;7.82;4.10;;;18.20;99.90;;;;;;5040718;28;20296;-73
2022/10/28 09:28:48;;;;;;;7.75;4.15;;;18.20;99.90;;;;;;5029485;28;20056;-73
2022/10/28 09:31:34;;;;;;;8.75;4.68;;;18.20;99.90;;;;;;5030636;28;20037;-73
2022/10/28 09:34:27;;;;;;;6.90;4.43;;;18.30;99.90;;;;;;5029645;28;20042;-73
2022/10/28 09:37:05;;;;;;;13.88;5.03;;;18.30;99.90;;;;;;5031852;28;20028;-75
2022/10/28 09:39:42;;;;;;;6.65;3.95;;;18.40;99.90;;;;;;5030189;28;20048;-73
2022/10/28 09:42:13;;;;;;;7.43;4.05;;;18.40;99.90;;;;;;5028287;28;20029;-73
2022/10/28 09:44:47;;;;;;;9.60;5.28;;;18.40;99.90;;;;;;5031312;28;20493;-74
2022/10/28 09:47:30;;;;;;;7.03;4.32;;;18.50;99.90;;;;;;5030726;28;20034;-72
2022/10/28 09:50:00;;;;;;;9.38;4.38;;;18.50;99.90;;;;;;5043510;28;20055;-73
2022/10/28 09:53:15;;;;;;;6.55;4.10;;;18.50;99.90;;;;;;5031146;28;20036;-73
2022/10/28 09:55:41;;;;;;;13.35;4.70;;;18.60;99.90;;;;;;5022230;28;20038;-74
2022/10/28 09:58:11;;;;;;;8.60;4.18;;;18.70;99.90;;;;;;5041958;28;20104;-72
2022/10/28 10:00:36;;;;;;;11.13;4.70;;;18.70;99.90;;;;;;5036845;28;20083;-73
2022/10/28 10:03:02;;;;;;;6.32;3.97;;;18.80;99.90;;;;;;5044347;28;20423;-73
2022/10/28 10:05:30;;;;;;;8.48;4.00;;;18.90;99.90;;;;;;5031759;28;20112;-73
2022/10/28 10:08:03;;;;;;;6.93;4.30;;;19.00;99.90;;;;;;5044325;28;20021;-74
2022/10/28 10:10:45;;;;;;;6.75;4.20;;;19.10;99.90;;;;;;5046661;28;20120;-74
2022/10/28 10:13:15;;;;;;;11.15;5.32;;;19.20;99.90;;;;;;5033947;28;20041;-73
2022/10/28 10:15:50;;;;;;;8.43;4.28;;;19.30;99.90;;;;;;5030370;28;20214;-73
2022/10/28 10:18:21;;;;;;;8.10;3.70;;;19.40;99.90;;;;;;5040173;28;20112;-74
2022/10/28 10:20:57;;;;;;;6.85;4.13;;;19.50;99.90;;;;;;5041541;28;20040;-74
2022/10/28 10:23:29;;;;;;;8.52;4.05;;;19.50;99.90;;;;;;5045703;28;20115;-73
2022/10/28 10:26:21;;;;;;;6.03;3.85;;;19.60;99.90;;;;;;5045188;28;20037;-73
2022/10/28 10:28:49;;;;;;;7.80;3.72;;;19.60;99.90;;;;;;5026134;28;20117;-73
2022/10/28 10:31:19;;;;;;;7.55;3.38;;;19.70;99.90;;;;;;5045723;28;20088;-73
2022/10/28 10:33:50;;;;;;;9.07;3.75;;;19.70;99.90;;;;;;5049515;28;20052;-74
2022/10/28 10:36:19;;;;;;;6.95;4.50;;;19.70;99.90;;;;;;5046932;28;20036;-74
2022/10/28 10:38:56;;;;;;;5.82;4.10;;;19.70;99.90;;;;;;5020298;28;20033;-73
2022/10/28 10:41:43;;;;;;;6.07;3.22;;;19.80;99.90;;;;;;5047042;28;20029;-74
2022/10/28 10:44:20;;;;;;;6.85;3.72;;;19.90;99.90;;;;;;5034005;28;20045;-74
2022/10/28 10:47:06;;;;;;;6.57;3.75;;;19.90;99.90;;;;;;5036601;28;20028;-74
2022/10/28 10:49:33;;;;;;;7.35;3.60;;;19.90;99.90;;;;;;5034051;28;20112;-73
2022/10/28 10:52:21;;;;;;;11.35;3.60;;;20.00;99.90;;;;;;5033867;28;20032;-74
2022/10/28 10:54:58;;;;;;;8.10;3.67;;;20.00;99.90;;;;;;5015653;28;20075;-74
2022/10/28 10:57:25;;;;;;;5.65;3.60;;;20.10;99.90;;;;;;5024678;28;20572;-73
2022/10/28 10:59:54;;;;;;;6.18;3.20;;;20.10;99.90;;;;;;5029008;28;20053;-73
2022/10/28 11:02:24;;;;;;;5.72;3.50;;;20.10;99.90;;;;;;5025664;28;20025;-73
2022/10/28 11:04:52;;;;;;;8.30;4.07;;;20.20;99.90;;;;;;5024881;28;20033;-73
2022/10/28 11:07:19;;;;;;;8.00;3.85;;;20.20;99.90;;;;;;5033380;28;20154;-74
2022/10/28 11:09:48;;;;;;;8.90;4.47;;;20.20;99.80;;;;;;5043854;28;20031;-73
2022/10/28 11:12:34;;;;;;;8.88;3.75;;;20.30;99.80;;;;;;5043823;28;20377;-72
2022/10/28 11:15:03;;;;;;;7.35;3.78;;;20.30;99.70;;;;;;5034294;28;20028;-73
2022/10/28 11:17:31;;;;;;;7.45;3.33;;;20.40;99.50;;;;;;5031534;28;20073;-74
2022/10/28 11:19:59;;;;;;;7.32;3.90;;;20.50;99.50;;;;;;5034530;28;20381;-73
2022/10/28 11:22:51;;;;;;;8.02;3.40;;;20.50;99.50;;;;;;5032062;28;20047;-73
2022/10/28 11:25:34;;;;;;;5.63;3.55;;;20.60;99.30;;;;;;5025225;28;20049;-74
2022/10/28 11:28:20;;;;;;;7.78;3.63;;;20.70;99.30;;;;;;5032439;28;20041;-73
2022/10/28 11:31:07;;;;;;;8.82;3.33;;;20.70;99.20;;;;;;5039011;28;20082;-74
2022/10/28 11:33:59;;;;;;;7.28;3.20;;;20.80;99.20;;;;;;5043285;28;20030;-73
2022/10/28 11:36:50;;;;;;;9.15;3.33;;;20.80;99.20;;;;;;5023039;28;20049;-74
2022/10/28 11:39:23;;;;;;;8.68;3.63;;;20.90;99.10;;;;;;5030706;28;20508;-74
2022/10/28 11:42:13;;;;;;;8.90;3.40;;;20.90;98.80;;;;;;5032166;28;20112;-73
2022/10/28 11:44:52;;;;;;;6.47;3.50;;;21.00;98.90;;;;;;5039987;28;20648;-73
2022/10/28 11:47:30;;;;;;;7.25;3.22;;;21.00;98.60;;;;;;5021513;28;20029;-73
2022/10/28 11:50:23;;;;;;;8.45;3.25;;;21.10;98.50;;;;;;5017468;28;20112;-73
2022/10/28 11:53:03;;;;;;;8.18;4.13;;;21.20;98.30;;;;;;5032767;28;20124;-74
2022/10/28 11:55:40;;;;;;;6.07;3.33;;;21.20;98.20;;;;;;5030282;28;20400;-73
2022/10/28 11:58:27;;;;;;;10.52;3.08;;;21.30;98.10;;;;;;5033090;28;20076;-73
2022/10/28 12:01:11;;;;;;;7.97;3.22;;;21.40;98.20;;;;;;5023253;28;20025;-73
2022/10/28 12:03:55;;;;;;;7.55;3.33;;;21.40;98.10;;;;;;5034044;28;20954;-73
2022/10/28 12:06:41;;;;;;;7.33;2.93;;;21.50;98.10;;;;;;5041750;28;20064;-73
2022/10/28 12:09:12;;;;;;;15.10;4.55;;;21.50;97.70;;;;;;5038378;28;20094;-73
2022/10/28 12:12:13;;;;;;;9.15;3.60;;;21.50;97.70;;;;;;5038664;28;20040;-73
2022/10/28 12:14:59;;;;;;;7.50;3.22;;;21.60;97.60;;;;;;5042403;28;20541;-73
2022/10/28 12:17:45;;;;;;;9.13;3.75;;;21.60;97.40;;;;;;5053181;28;20060;-74
2022/10/28 12:20:25;;;;;;;11.35;3.85;;;21.70;97.50;;;;;;5031443;28;20124;-74
2022/10/28 12:22:58;;;;;;;6.18;3.00;;;21.80;97.40;;;;;;5040513;28;20040;-73
2022/10/28 12:25:27;;;;;;;13.23;3.42;;;22.00;97.20;;;;;;5029243;28;20068;-73
2022/10/28 12:28:05;;;;;;;8.23;3.42;;;22.10;97.20;;;;;;5032480;28;20041;-74
2022/10/28 12:30:34;;;;;;;11.50;4.38;;;22.20;96.90;;;;;;5048724;28;20572;-74
2022/10/28 12:33:11;;;;;;;7.15;3.67;;;22.30;96.70;;;;;;5053025;28;20035;-74
2022/10/28 12:35:45;;;;;;;7.75;4.35;;;22.40;96.60;;;;;;5051192;28;20447;-73
2022/10/28 12:38:27;;;;;;;4.55;3.03;;;22.40;96.50;;;;;;5051201;28;20063;-74
2022/10/28 12:41:05;;;;;;;9.10;3.13;;;22.40;96.30;;;;;;5033886;28;20380;-74
2022/10/28 12:43:39;;;;;;;8.48;3.67;;;22.50;96.30;;;;;;5030779;28;20080;-74
2022/10/28 12:46:10;;;;;;;;;;;22.50;96.10;;;;;;5044058;28;20545;-73
2022/10/28 12:48:49;;;;;;;7.93;3.50;;;22.60;96.80;;;;;;5048601;28;19908;-74
2022/10/28 12:51:32;;;;;;;5.65;3.35;;;22.60;96.30;;;;;;5037801;28;20617;-73
2022/10/28 12:54:13;;;;;;;7.50;3.20;;;22.60;96.20;;;;;;5046339;28;20033;-74
2022/10/28 12:56:48;;;;;;;7.88;3.10;;;22.60;96.20;;;;;;5017754;28;20395;-74
2022/10/28 12:59:30;;;;;;;5.75;2.97;;;22.60;96.20;;;;;;5035481;28;20085;-73
2022/10/28 13:01:59;;;;;;;7.07;2.83;;;22.60;96.10;;;;;;5036628;28;20409;-73
2022/10/28 13:04:27;;;;;;;5.60;3.30;;;22.60;96.10;;;;;;5032517;28;20487;-73
2022/10/28 13:07:20;;;;;;;5.70;3.08;;;22.60;96.00;;;;;;5031161;28;20052;-73